CheckWX is a tool to help pilots better visualize weather data.  It is not intended as a substitute for an official pre-flight weather briefing.

22:37:28 UTC

LFPN TAF
Toussus-le-Noble Airport
Toussus-le-Noble, France
TAF LFPN 151700Z 1518/1603 02007KT CAVOK

Jul-15@
18:00 UTC

Jul-15 @ 18:00 UTC

Jul-16@
03:00 UTC

Jul-16 @ 03:00 UTC

TAF LFPN 151700Z 1518/1603 02007KT CAVOK
Wind
  • 020° at 7 KTS
Conditions
No significant weather
Cloud Levels
  • No significant clouds